Attawapiskat Airport
CYAT : now visible

Airfield :











YOU CAN JOIN US ON...

 
LOGIN :

Register | Disclaimer

   EN    FR    IT 

 









Legend :    VFR   Marginal VFR   IFR   Intensive IFR   Very Intensive IFR
Visi :
Ceiling :
>= 8 km
>= 3000ft
5 to 8 km
1000 to 3000 ft
1500m to 5 km
500 to 1000 ft
800 to 1500m
200 to 500 ft
< 800m
< 200 ft
Symbols :   Thunderstorms  Fog  Heavy snow  Heavy precipitations  Wind > 20 kt






- Airport Elevation : 31 ft
- IATA code : YAT


CYAT - Attawapiskat

CURRENT METAR :
  • 241900Z AUTO 28018G26KT 9SM -RA BKN066 OVC077 13/08 A2996 RMK SLP147

EXPIRED METARs :
  • 241845Z AUTO 28017G24KT 9SM -RA FEW039 BKN071 OVC088 14/07 A2995 RMK PRESRR SLP145
  • 241821Z AUTO 30014G24KT 9SM BKN076 OVC095 16/07 A2994 RMK SLP139 DENSITY ALT 100FT
  • 241800Z AUTO 30015G22KT 9SM -RA BKN071 OVC084 14/08 A2993 RMK PRESRR SLP136
  • 241748Z AUTO 26026G32KT 9SM -RA BKN071 OVC089 18/06 A2991 RMK PRESRR SLP129 DENSITY ALT 400FT
  • 241700Z AUTO 22015G26KT 180V250 7SM FEW150 BKN180 20/03 A2989 RMK SLP125 DENSITY ALT 700FT

Expired Forecast.
CZWG FIR / North America



MET'MAP, your aeronautical weather chart ! - Copyright ORBIFLY December 2007 - Disclaimer

ORBIFLY MET'MAP TEAM :

Programming & Development : Alexandra Zaïnal
Original concept : Baudouin d'Aumeries
Technical & hardware support : Manuel Goepfert
Assistance : Marc-Olivier Méhu

Contact : metmap@orbifly.com




SOURCES & CREDITS :

   NOAA       Earth
Advisory